sim
Sign-in with your pilot id or email,
or register
Callsign
Passwort

Schedule Details

Flight Number: RYR4774 (3)
Departure: Milan Bergamo Il Caravaggio International Airport (LIME) at 17:05
Arrival: Thessaloniki International Airport (LGTS) at 19:10
Route: Ryanair Passenger Schedule. Enter filed route here before submitting Pirep.

Weather Information
Getting current METAR information for LIME 211220Z 22004KT 160V280 6000 NSC 13/05 Q1027 NOSIG
Getting current METAR information for LGTS 211220Z 34013KT 9999 FEW030 16/00 Q1022 NOSIG

Schedule Frequency

Route Map